sensor_id;sensor_type;location;lat;lon;timestamp;P1;durP1;ratioP1;P2;durP2;ratioP2
12912;SDS011;6524;51.368;11.984;2023-03-05T00:01:40;5.30;;;2.77;;
12912;SDS011;6524;51.368;11.984;2023-03-05T00:06:41;6.67;;;2.40;;
12912;SDS011;6524;51.368;11.984;2023-03-05T00:11:42;7.00;;;2.50;;
12912;SDS011;6524;51.368;11.984;2023-03-05T00:16:42;6.70;;;2.60;;
12912;SDS011;6524;51.368;11.984;2023-03-05T00:21:43;5.07;;;2.20;;
12912;SDS011;6524;51.368;11.984;2023-03-05T00:26:43;7.47;;;2.70;;
12912;SDS011;6524;51.368;11.984;2023-03-05T00:31:45;4.80;;;2.30;;
12912;SDS011;6524;51.368;11.984;2023-03-05T00:36:46;2.97;;;2.10;;
12912;SDS011;6524;51.368;11.984;2023-03-05T00:41:49;3.97;;;2.30;;
12912;SDS011;6524;51.368;11.984;2023-03-05T05:03:56;4.73;;;2.53;;
12912;SDS011;6524;51.368;11.984;2023-03-05T05:08:57;3.47;;;2.00;;
12912;SDS011;6524;51.368;11.984;2023-03-05T05:13:57;5.40;;;2.43;;
12912;SDS011;6524;51.368;11.984;2023-03-05T05:18:58;4.00;;;2.17;;
12912;SDS011;6524;51.368;11.984;2023-03-05T05:23:58;4.20;;;2.20;;
12912;SDS011;6524;51.368;11.984;2023-03-05T05:28:59;3.67;;;2.10;;
12912;SDS011;6524;51.368;11.984;2023-03-05T05:33:59;3.00;;;1.80;;
12912;SDS011;6524;51.368;11.984;2023-03-05T05:39:00;4.10;;;2.30;;
12912;SDS011;6524;51.368;11.984;2023-03-05T05:44:00;3.93;;;1.77;;
12912;SDS011;6524;51.368;11.984;2023-03-05T05:49:00;4.23;;;1.90;;
12912;SDS011;6524;51.368;11.984;2023-03-05T05:54:01;3.20;;;2.10;;
12912;SDS011;6524;51.368;11.984;2023-03-05T05:59:05;7.37;;;3.10;;
12912;SDS011;6524;51.368;11.984;2023-03-05T06:04:05;3.10;;;1.90;;
12912;SDS011;6524;51.368;11.984;2023-03-05T06:09:06;4.97;;;2.50;;
12912;SDS011;6524;51.368;11.984;2023-03-05T06:14:08;3.90;;;1.70;;
12912;SDS011;6524;51.368;11.984;2023-03-05T06:19:10;4.23;;;2.20;;
12912;SDS011;6524;51.368;11.984;2023-03-05T06:24:12;3.73;;;1.80;;
12912;SDS011;6524;51.368;11.984;2023-03-05T06:29:12;3.97;;;1.87;;
12912;SDS011;6524;51.368;11.984;2023-03-05T06:34:13;3.07;;;1.70;;
12912;SDS011;6524;51.368;11.984;2023-03-05T06:39:14;2.37;;;2.00;;
12912;SDS011;6524;51.368;11.984;2023-03-05T06:44:15;3.07;;;1.70;;
12912;SDS011;6524;51.368;11.984;2023-03-05T06:49:26;6.90;;;4.17;;
12912;SDS011;6524;51.368;11.984;2023-03-05T06:54:29;3.27;;;1.83;;
12912;SDS011;6524;51.368;11.984;2023-03-05T06:59:29;4.53;;;2.17;;
12912;SDS011;6524;51.368;11.984;2023-03-05T07:04:30;3.93;;;2.23;;
12912;SDS011;6524;51.368;11.984;2023-03-05T07:09:30;6.57;;;2.40;;
12912;SDS011;6524;51.368;11.984;2023-03-05T07:14:31;3.73;;;1.77;;
12912;SDS011;6524;51.368;11.984;2023-03-05T07:19:31;3.27;;;1.90;;
12912;SDS011;6524;51.368;11.984;2023-03-05T07:24:32;4.53;;;1.97;;
12912;SDS011;6524;51.368;11.984;2023-03-05T07:29:32;3.80;;;2.10;;
12912;SDS011;6524;51.368;11.984;2023-03-05T07:34:33;3.63;;;2.13;;
12912;SDS011;6524;51.368;11.984;2023-03-05T07:39:33;4.23;;;1.93;;
12912;SDS011;6524;51.368;11.984;2023-03-05T07:44:34;4.70;;;2.60;;
12912;SDS011;6524;51.368;11.984;2023-03-05T07:49:35;4.90;;;2.77;;
12912;SDS011;6524;51.368;11.984;2023-03-05T07:54:38;6.03;;;2.57;;
12912;SDS011;6524;51.368;11.984;2023-03-05T07:59:39;4.90;;;2.60;;
12912;SDS011;6524;51.368;11.984;2023-03-05T08:04:40;3.47;;;2.30;;
12912;SDS011;6524;51.368;11.984;2023-03-05T08:09:43;5.17;;;2.80;;
12912;SDS011;6524;51.368;11.984;2023-03-05T08:14:44;5.17;;;2.57;;
12912;SDS011;6524;51.368;11.984;2023-03-05T08:19:46;4.87;;;2.80;;
12912;SDS011;6524;51.368;11.984;2023-03-05T08:24:47;6.57;;;2.80;;
12912;SDS011;6524;51.368;11.984;2023-03-05T08:29:47;4.97;;;2.63;;
12912;SDS011;6524;51.368;11.984;2023-03-05T08:34:47;8.60;;;2.60;;
12912;SDS011;6524;51.368;11.984;2023-03-05T08:39:48;3.23;;;2.20;;
12912;SDS011;6524;51.368;11.984;2023-03-05T08:44:50;6.10;;;2.73;;
12912;SDS011;6524;51.368;11.984;2023-03-05T08:49:52;3.90;;;2.47;;
12912;SDS011;6524;51.368;11.984;2023-03-05T08:54:54;3.87;;;2.97;;
12912;SDS011;6524;51.368;11.984;2023-03-05T08:59:56;4.90;;;2.70;;
12912;SDS011;6524;51.368;11.984;2023-03-05T09:05:02;4.67;;;3.10;;
12912;SDS011;6524;51.368;11.984;2023-03-05T09:10:08;5.13;;;2.97;;
12912;SDS011;6524;51.368;11.984;2023-03-05T09:15:12;5.43;;;2.73;;
12912;SDS011;6524;51.368;11.984;2023-03-05T09:20:13;4.90;;;2.60;;
12912;SDS011;6524;51.368;11.984;2023-03-05T09:25:15;4.07;;;2.57;;
12912;SDS011;6524;51.368;11.984;2023-03-05T09:30:22;4.67;;;2.63;;
12912;SDS011;6524;51.368;11.984;2023-03-05T09:35:22;4.20;;;2.90;;
12912;SDS011;6524;51.368;11.984;2023-03-05T09:40:23;5.23;;;2.80;;
12912;SDS011;6524;51.368;11.984;2023-03-05T09:45:32;5.40;;;3.00;;
12912;SDS011;6524;51.368;11.984;2023-03-05T09:55:51;3.83;;;2.63;;
12912;SDS011;6524;51.368;11.984;2023-03-05T10:00:55;4.17;;;2.83;;
12912;SDS011;6524;51.368;11.984;2023-03-05T10:06:13;5.13;;;2.70;;
12912;SDS011;6524;51.368;11.984;2023-03-05T10:17:04;3.27;;;2.97;;
12912;SDS011;6524;51.368;11.984;2023-03-05T10:22:24;4.80;;;3.20;;
12912;SDS011;6524;51.368;11.984;2023-03-05T10:43:23;4.43;;;2.83;;
12912;SDS011;6524;51.368;11.984;2023-03-05T10:48:34;3.03;;;2.40;;
12912;SDS011;6524;51.368;11.984;2023-03-05T10:53:49;2.93;;;2.20;;
12912;SDS011;6524;51.368;11.984;2023-03-05T10:59:09;2.63;;;2.33;;
12912;SDS011;6524;51.368;11.984;2023-03-05T11:04:25;2.97;;;2.60;;
12912;SDS011;6524;51.368;11.984;2023-03-05T11:09:28;3.80;;;2.50;;
12912;SDS011;6524;51.368;11.984;2023-03-05T11:14:31;5.20;;;3.20;;
12912;SDS011;6524;51.368;11.984;2023-03-05T11:19:32;4.67;;;2.70;;
12912;SDS011;6524;51.368;11.984;2023-03-05T11:24:33;4.33;;;2.80;;
12912;SDS011;6524;51.368;11.984;2023-03-05T11:29:34;5.50;;;2.80;;
12912;SDS011;6524;51.368;11.984;2023-03-05T11:34:46;5.70;;;2.70;;
12912;SDS011;6524;51.368;11.984;2023-03-05T11:39:47;4.00;;;2.70;;
12912;SDS011;6524;51.368;11.984;2023-03-05T11:44:58;3.00;;;2.70;;
12912;SDS011;6524;51.368;11.984;2023-03-05T11:55:18;2.83;;;2.60;;
12912;SDS011;6524;51.368;11.984;2023-03-05T12:00:20;3.55;;;2.72;;
12912;SDS011;6524;51.368;11.984;2023-03-05T12:05:27;2.65;;;2.30;;
12912;SDS011;6524;51.368;11.984;2023-03-05T12:10:28;1.80;;;1.70;;
12912;SDS011;6524;51.368;11.984;2023-03-05T12:21:40;2.73;;;1.90;;
12912;SDS011;6524;51.368;11.984;2023-03-05T12:31:52;3.10;;;1.40;;
12912;SDS011;6524;51.368;11.984;2023-03-05T12:36:52;1.30;;;1.20;;
12912;SDS011;6524;51.368;11.984;2023-03-05T12:41:53;1.93;;;1.20;;
12912;SDS011;6524;51.368;11.984;2023-03-05T12:52:21;1.60;;;1.43;;
12912;SDS011;6524;51.368;11.984;2023-03-05T12:57:24;1.70;;;1.60;;
12912;SDS011;6524;51.368;11.984;2023-03-05T13:02:35;1.90;;;1.63;;
12912;SDS011;6524;51.368;11.984;2023-03-05T13:07:38;2.10;;;1.73;;
12912;SDS011;6524;51.368;11.984;2023-03-05T13:12:38;2.73;;;1.70;;
12912;SDS011;6524;51.368;11.984;2023-03-05T13:28:14;2.03;;;1.70;;
12912;SDS011;6524;51.368;11.984;2023-03-05T13:33:16;1.87;;;1.57;;
12912;SDS011;6524;51.368;11.984;2023-03-05T13:38:23;1.60;;;1.50;;
12912;SDS011;6524;51.368;11.984;2023-03-05T18:51:34;4.67;;;2.87;;
12912;SDS011;6524;51.368;11.984;2023-03-05T18:56:35;5.10;;;2.70;;
12912;SDS011;6524;51.368;11.984;2023-03-05T19:01:36;4.80;;;3.10;;
12912;SDS011;6524;51.368;11.984;2023-03-05T19:06:36;5.17;;;2.33;;
12912;SDS011;6524;51.368;11.984;2023-03-05T19:11:37;3.67;;;2.33;;
12912;SDS011;6524;51.368;11.984;2023-03-05T19:16:37;2.30;;;2.00;;
12912;SDS011;6524;51.368;11.984;2023-03-05T19:21:43;5.10;;;2.63;;
12912;SDS011;6524;51.368;11.984;2023-03-05T19:26:46;3.80;;;3.10;;
12912;SDS011;6524;51.368;11.984;2023-03-05T19:31:47;3.53;;;2.67;;
12912;SDS011;6524;51.368;11.984;2023-03-05T19:36:47;3.53;;;2.60;;
12912;SDS011;6524;51.368;11.984;2023-03-05T19:41:47;3.93;;;2.50;;
12912;SDS011;6524;51.368;11.984;2023-03-05T19:46:48;4.63;;;3.40;;
12912;SDS011;6524;51.368;11.984;2023-03-05T19:51:48;3.17;;;2.60;;
12912;SDS011;6524;51.368;11.984;2023-03-05T19:56:50;4.50;;;2.50;;
12912;SDS011;6524;51.368;11.984;2023-03-05T20:01:52;2.60;;;2.40;;
12912;SDS011;6524;51.368;11.984;2023-03-05T20:06:53;2.60;;;2.40;;
12912;SDS011;6524;51.368;11.984;2023-03-05T20:11:53;2.60;;;2.40;;
12912;SDS011;6524;51.368;11.984;2023-03-05T20:16:55;3.53;;;2.50;;
12912;SDS011;6524;51.368;11.984;2023-03-05T20:21:56;3.70;;;2.70;;
12912;SDS011;6524;51.368;11.984;2023-03-05T20:26:56;4.60;;;3.30;;
12912;SDS011;6524;51.368;11.984;2023-03-05T20:31:57;3.57;;;2.50;;
12912;SDS011;6524;51.368;11.984;2023-03-05T20:36:57;2.63;;;2.40;;
12912;SDS011;6524;51.368;11.984;2023-03-05T20:41:58;3.00;;;2.37;;
12912;SDS011;6524;51.368;11.984;2023-03-05T20:47:08;3.53;;;2.50;;
12912;SDS011;6524;51.368;11.984;2023-03-05T20:52:38;3.67;;;2.83;;
12912;SDS011;6524;51.368;11.984;2023-03-05T20:57:39;4.03;;;2.47;;
12912;SDS011;6524;51.368;11.984;2023-03-05T21:02:40;3.40;;;2.77;;
12912;SDS011;6524;51.368;11.984;2023-03-05T21:07:41;2.97;;;2.63;;
12912;SDS011;6524;51.368;11.984;2023-03-05T21:12:42;4.10;;;2.97;;
12912;SDS011;6524;51.368;11.984;2023-03-05T21:17:43;3.27;;;2.87;;
12912;SDS011;6524;51.368;11.984;2023-03-05T21:22:44;3.30;;;3.00;;
12912;SDS011;6524;51.368;11.984;2023-03-05T21:27:44;3.60;;;2.80;;
12912;SDS011;6524;51.368;11.984;2023-03-05T21:32:44;4.43;;;2.90;;
12912;SDS011;6524;51.368;11.984;2023-03-05T21:37:45;4.20;;;3.17;;
12912;SDS011;6524;51.368;11.984;2023-03-05T21:42:46;3.57;;;3.10;;
12912;SDS011;6524;51.368;11.984;2023-03-05T21:47:47;3.53;;;3.07;;
12912;SDS011;6524;51.368;11.984;2023-03-05T21:52:48;3.73;;;2.93;;
12912;SDS011;6524;51.368;11.984;2023-03-05T21:57:49;4.43;;;3.20;;
12912;SDS011;6524;51.368;11.984;2023-03-05T22:02:50;4.07;;;3.27;;
12912;SDS011;6524;51.368;11.984;2023-03-05T22:07:50;3.20;;;2.90;;
12912;SDS011;6524;51.368;11.984;2023-03-05T22:12:59;3.60;;;3.20;;
12912;SDS011;6524;51.368;11.984;2023-03-05T22:18:09;5.67;;;3.47;;
12912;SDS011;6524;51.368;11.984;2023-03-05T22:23:11;4.07;;;3.10;;
12912;SDS011;6524;51.368;11.984;2023-03-05T22:28:11;3.83;;;3.20;;
12912;SDS011;6524;51.368;11.984;2023-03-05T22:33:12;6.00;;;3.40;;
12912;SDS011;6524;51.368;11.984;2023-03-05T22:38:13;4.57;;;3.60;;
12912;SDS011;6524;51.368;11.984;2023-03-05T22:43:14;6.43;;;3.60;;
12912;SDS011;6524;51.368;11.984;2023-03-05T22:48:15;4.60;;;3.40;;
12912;SDS011;6524;51.368;11.984;2023-03-05T22:53:16;5.83;;;4.10;;
12912;SDS011;6524;51.368;11.984;2023-03-05T22:58:16;5.87;;;4.70;;
12912;SDS011;6524;51.368;11.984;2023-03-05T23:03:16;6.03;;;4.43;;
12912;SDS011;6524;51.368;11.984;2023-03-05T23:08:17;6.07;;;4.30;;
12912;SDS011;6524;51.368;11.984;2023-03-05T23:13:17;7.63;;;4.53;;
12912;SDS011;6524;51.368;11.984;2023-03-05T23:18:17;6.93;;;4.73;;
12912;SDS011;6524;51.368;11.984;2023-03-05T23:23:18;6.70;;;4.67;;
12912;SDS011;6524;51.368;11.984;2023-03-05T23:28:19;6.57;;;4.90;;
12912;SDS011;6524;51.368;11.984;2023-03-05T23:33:21;8.93;;;5.40;;
12912;SDS011;6524;51.368;11.984;2023-03-05T23:38:23;7.20;;;5.10;;
12912;SDS011;6524;51.368;11.984;2023-03-05T23:43:24;7.00;;;4.90;;
12912;SDS011;6524;51.368;11.984;2023-03-05T23:48:25;7.30;;;5.23;;
12912;SDS011;6524;51.368;11.984;2023-03-05T23:53:28;6.60;;;5.23;;
12912;SDS011;6524;51.368;11.984;2023-03-05T23:58:30;7.00;;;5.20;;
